Time;durP1;ratioP1;P1;durP2;ratioP2;P2;SDS_P1;SDS_P2;PMS_P1;PMS_P2;Temp;Humidity;BMP_temperature;BMP_pressure;BME280_temperature;BME280_humidity;BME280_pressure;Samples;Min_cycle;Max_cycle;Signal;HPM_P1;HPM_P2
2023/10/12 00:01:58;;;;;;;6.00;2.90;;;21.10;99.90;;;;;;5011884;28;20411;-73
2023/10/12 00:04:45;;;;;;;3.43;2.63;;;21.00;99.90;;;;;;5027278;28;20435;-72
2023/10/12 00:07:16;;;;;;;4.90;3.20;;;21.00;99.90;;;;;;5015383;28;20427;-72
2023/10/12 00:10:01;;;;;;;4.93;3.10;;;21.10;99.90;;;;;;5015394;28;20415;-72
2023/10/12 00:12:27;;;;;;;5.47;3.27;;;21.00;99.90;;;;;;5015541;28;20411;-73
2023/10/12 00:14:56;;;;;;;5.63;2.77;;;21.00;99.90;;;;;;5015267;28;20411;-72
2023/10/12 00:17:23;;;;;;;6.70;3.33;;;20.90;99.90;;;;;;5015115;28;20235;-72
2023/10/12 00:19:51;;;;;;;5.03;3.53;;;20.90;99.90;;;;;;5013665;28;20537;-72
2023/10/12 00:22:17;;;;;;;3.87;2.87;;;20.80;99.90;;;;;;5015140;28;20407;-72
2023/10/12 00:24:43;;;;;;;4.67;2.47;;;20.80;99.90;;;;;;5014927;28;20896;-73
2023/10/12 00:27:11;;;;;;;11.33;3.40;;;20.80;99.90;;;;;;5014892;28;20426;-72
2023/10/12 00:29:39;;;;;;;7.50;2.60;;;20.80;99.90;;;;;;5014912;28;20859;-72
2023/10/12 00:32:09;;;;;;;6.30;3.17;;;20.80;99.90;;;;;;5015122;28;20781;-72
2023/10/12 00:34:37;;;;;;;9.80;4.10;;;20.70;99.90;;;;;;5014799;28;20494;-72
2023/10/12 00:37:03;;;;;;;4.93;3.17;;;20.70;99.90;;;;;;5014708;28;20454;-72
2023/10/12 00:39:44;;;;;;;8.70;3.30;;;20.60;99.90;;;;;;5014552;28;20404;-72
2023/10/12 00:42:11;;;;;;;5.10;2.73;;;20.60;99.90;;;;;;5014892;28;20403;-72
2023/10/12 00:44:40;;;;;;;9.00;3.60;;;20.50;99.90;;;;;;5014659;28;20442;-72
2023/10/12 00:49:50;;;;;;;10.53;4.17;;;20.50;99.90;;;;;;5011991;28;20444;-72
2023/10/12 00:52:26;;;;;;;7.57;3.40;;;20.50;99.90;;;;;;5004872;28;20415;-72
2023/10/12 00:54:57;;;;;;;5.23;3.17;;;20.40;99.90;;;;;;5014511;28;20181;-72
2023/10/12 00:57:23;;;;;;;4.20;3.77;;;20.40;99.90;;;;;;5014477;28;20918;-73
2023/10/12 00:59:51;;;;;;;10.40;4.20;;;20.40;99.90;;;;;;5014028;28;20458;-72
2023/10/12 01:02:21;;;;;;;7.80;5.70;;;20.30;99.90;;;;;;5013386;28;20910;-73
2023/10/12 01:04:48;;;;;;;5.07;3.60;;;20.40;99.90;;;;;;5014184;28;20901;-73
2023/10/12 01:07:20;;;;;;;5.57;3.33;;;20.40;99.90;;;;;;5014145;28;20427;-72
2023/10/12 01:09:54;;;;;;;6.30;4.00;;;20.40;99.90;;;;;;5014100;28;20418;-72
2023/10/12 01:12:19;;;;;;;8.53;2.90;;;20.40;99.90;;;;;;5014276;28;20780;-72
2023/10/12 01:14:47;;;;;;;4.73;2.97;;;20.40;99.90;;;;;;5014307;28;20411;-72
2023/10/12 01:17:29;;;;;;;6.43;4.00;;;20.40;99.90;;;;;;5012550;28;20202;-72
2023/10/12 01:19:58;;;;;;;5.80;3.17;;;20.40;99.90;;;;;;5013463;28;20442;-71
2023/10/12 01:22:26;;;;;;;3.63;3.23;;;20.30;99.90;;;;;;5014071;28;20403;-72
2023/10/12 01:27:21;;;;;;;6.40;3.37;;;20.40;99.90;;;;;;5013981;28;20424;-72
2023/10/12 01:29:48;;;;;;;7.80;3.33;;;20.30;99.90;;;;;;5013494;28;20498;-72
2023/10/12 01:34:49;;;;;;;10.13;3.50;;;20.40;99.90;;;;;;5013877;28;20407;-72
2023/10/12 01:37:27;;;;;;;6.70;3.60;;;20.30;99.90;;;;;;5013522;28;20477;-72
2023/10/12 01:42:49;;;;;;;3.60;2.83;;;20.20;99.90;;;;;;5013618;28;20930;-71
2023/10/12 01:45:35;;;;;;;14.53;3.10;;;20.20;99.90;;;;;;5013621;28;20759;-72
2023/10/12 01:48:16;;;;;;;5.13;3.50;;;20.10;99.90;;;;;;5008471;28;20510;-72
2023/10/12 01:50:47;;;;;;;3.13;2.83;;;20.10;99.90;;;;;;5013298;28;20909;-71
2023/10/12 01:55:45;;;;;;;9.03;3.13;;;20.00;99.90;;;;;;5012972;28;20518;-71
2023/10/12 01:58:12;;;;;;;5.90;2.90;;;20.00;99.90;;;;;;5028252;28;20502;-72
2023/10/12 02:00:40;;;;;;;3.07;2.70;;;20.00;99.90;;;;;;5013186;28;20191;-72
2023/10/12 02:03:15;;;;;;;4.20;2.80;;;20.00;99.90;;;;;;5013243;28;20490;-72
2023/10/12 02:05:47;;;;;;;3.53;2.70;;;19.90;99.90;;;;;;5028239;28;20442;-72
2023/10/12 02:08:17;;;;;;;4.80;3.13;;;19.90;99.90;;;;;;5011691;28;20419;-72
2023/10/12 02:10:54;;;;;;;5.43;3.10;;;19.90;99.90;;;;;;5025825;28;20431;-74
2023/10/12 02:13:21;;;;;;;6.00;3.67;;;19.80;99.90;;;;;;5011409;28;20446;-72
2023/10/12 02:15:49;;;;;;;6.03;3.30;;;19.80;99.90;;;;;;5012707;28;20427;-73
2023/10/12 02:18:16;;;;;;;7.23;3.30;;;19.90;99.90;;;;;;5012699;28;20465;-72
2023/10/12 02:21:06;;;;;;;3.27;2.97;;;19.80;99.90;;;;;;5013009;28;20447;-72
2023/10/12 02:23:38;;;;;;;3.47;3.17;;;19.80;99.90;;;;;;5012934;28;20399;-72
2023/10/12 02:28:53;;;;;;;4.73;3.17;;;19.60;99.90;;;;;;5012222;28;20478;-72
2023/10/12 02:31:19;;;;;;;7.27;2.87;;;19.60;99.90;;;;;;5012819;28;20403;-73
2023/10/12 02:33:45;;;;;;;4.80;3.40;;;19.50;99.90;;;;;;5028139;28;20914;-72
2023/10/12 02:36:11;;;;;;;6.23;3.37;;;19.40;99.90;;;;;;5012464;28;20474;-72
2023/10/12 02:38:37;;;;;;;4.43;3.37;;;19.40;99.90;;;;;;5012463;28;20195;-73
2023/10/12 02:41:02;;;;;;;5.83;3.43;;;19.40;99.90;;;;;;5012462;28;20451;-73
2023/10/12 02:43:28;;;;;;;8.33;6.53;;;19.30;99.90;;;;;;5012924;28;20174;-73
2023/10/12 02:46:01;;;;;;;6.53;3.77;;;19.30;99.90;;;;;;5012590;28;20556;-73
2023/10/12 02:48:29;;;;;;;6.10;4.53;;;19.20;99.90;;;;;;5007612;28;20449;-73
2023/10/12 02:50:58;;;;;;;5.30;4.00;;;19.10;99.90;;;;;;5008642;28;20499;-72
2023/10/12 02:53:28;;;;;;;5.27;3.80;;;19.10;99.90;;;;;;5012537;28;20419;-72
2023/10/12 02:55:58;;;;;;;7.03;3.97;;;19.00;99.90;;;;;;5012391;28;20430;-72
2023/10/12 02:58:24;;;;;;;8.93;3.60;;;19.00;99.90;;;;;;5027453;28;20451;-72
2023/10/12 03:00:55;;;;;;;9.00;4.30;;;19.00;99.90;;;;;;5012186;28;20455;-72
2023/10/12 03:03:24;;;;;;;5.93;3.27;;;18.90;99.90;;;;;;5012437;28;20486;-72
2023/10/12 03:05:52;;;;;;;5.53;3.93;;;18.90;99.90;;;;;;5011865;28;20415;-72
2023/10/12 03:08:20;;;;;;;5.77;3.57;;;18.90;99.90;;;;;;5012301;28;20902;-72
2023/10/12 03:13:35;;;;;;;6.63;3.53;;;18.90;99.90;;;;;;5012619;28;20406;-72
2023/10/12 03:18:44;;;;;;;4.83;4.03;;;18.80;99.90;;;;;;5012291;28;20982;-72
2023/10/12 03:21:12;;;;;;;12.63;4.40;;;18.70;99.90;;;;;;5012147;28;20537;-72
2023/10/12 03:23:39;;;;;;;6.10;4.80;;;18.60;99.90;;;;;;5012271;28;20171;-72
2023/10/12 03:26:18;;;;;;;7.63;4.57;;;18.60;99.90;;;;;;5012034;28;20419;-73
2023/10/12 03:28:46;;;;;;;7.50;4.57;;;18.50;99.90;;;;;;5011758;28;20414;-72
2023/10/12 03:31:21;;;;;;;7.47;5.00;;;18.40;99.90;;;;;;5027230;28;20801;-72
2023/10/12 03:33:54;;;;;;;8.03;5.10;;;18.40;99.90;;;;;;5010775;28;20411;-72
2023/10/12 03:36:23;;;;;;;5.70;4.70;;;18.30;99.90;;;;;;5012060;28;20497;-72
2023/10/12 03:46:57;;;;;;;11.40;4.80;;;18.30;99.90;;;;;;5013343;28;20440;-72
2023/10/12 03:51:57;;;;;;;9.17;4.80;;;18.30;99.90;;;;;;5015646;28;20533;-72
2023/10/12 03:54:29;;;;;;;5.40;4.20;;;18.20;99.90;;;;;;5015587;28;20898;-72
2023/10/12 03:57:19;;;;;;;8.97;5.30;;;18.20;99.90;;;;;;5015661;28;20427;-72
2023/10/12 03:59:59;;;;;;;4.10;3.73;;;18.20;99.90;;;;;;5015461;28;20395;-72
2023/10/12 04:02:25;;;;;;;6.27;4.40;;;18.20;99.90;;;;;;5015590;28;20399;-72
2023/10/12 04:05:15;;;;;;;7.93;4.23;;;18.20;99.90;;;;;;5015864;28;20403;-72
2023/10/12 04:13:09;;;;;;;4.50;4.07;;;18.20;99.90;;;;;;5015495;28;20454;-73
2023/10/12 04:16:05;;;;;;;7.10;5.07;;;18.20;99.90;;;;;;5015271;28;20419;-73
2023/10/12 04:18:32;;;;;;;9.43;4.53;;;18.10;99.90;;;;;;5015294;28;20422;-72
2023/10/12 04:20:58;;;;;;;7.10;4.90;;;18.10;99.90;;;;;;5029892;28;20458;-73
2023/10/12 04:26:27;;;;;;;7.57;5.03;;;18.00;99.90;;;;;;5015426;28;20475;-73
2023/10/12 04:28:53;;;;;;;6.90;4.30;;;18.00;99.90;;;;;;5012050;28;20481;-73
2023/10/12 04:31:32;;;;;;;8.50;5.20;;;18.00;99.90;;;;;;5013932;28;20438;-73
2023/10/12 04:34:08;;;;;;;7.20;4.53;;;18.00;99.90;;;;;;5014831;28;20402;-73
2023/10/12 04:36:45;;;;;;;8.80;4.53;;;17.90;99.90;;;;;;5014398;28;20459;-73
2023/10/12 04:39:25;;;;;;;5.27;4.70;;;17.80;99.90;;;;;;5014417;28;20403;-73
2023/10/12 04:46:58;;;;;;;4.87;3.80;;;17.70;99.90;;;;;;5013389;28;20443;-72
2023/10/12 04:54:59;;;;;;;8.17;4.57;;;17.50;99.90;;;;;;5011888;28;20407;-72
2023/10/12 04:57:26;;;;;;;11.43;5.30;;;17.50;99.90;;;;;;5014309;28;20449;-72
2023/10/12 05:07:54;;;;;;;6.57;5.40;;;17.50;99.90;;;;;;5014118;28;20425;-71
2023/10/12 05:10:28;;;;;;;6.60;4.80;;;17.50;99.90;;;;;;5021045;28;20423;-71
2023/10/12 05:13:03;;;;;;;6.13;5.17;;;17.60;99.90;;;;;;5014297;28;20433;-72
2023/10/12 05:15:39;;;;;;;8.03;4.17;;;17.50;99.90;;;;;;5012803;28;20792;-71
2023/10/12 05:18:06;;;;;;;7.53;4.93;;;17.50;99.90;;;;;;5013781;28;20411;-71
2023/10/12 05:20:31;;;;;;;5.20;4.67;;;17.50;99.90;;;;;;5013836;28;21029;-72
2023/10/12 05:22:58;;;;;;;8.73;5.67;;;17.40;99.90;;;;;;5013409;28;20490;-72
2023/10/12 05:25:32;;;;;;;7.80;4.83;;;17.40;99.90;;;;;;5013891;28;20686;-72
2023/10/12 05:28:14;;;;;;;8.00;4.77;;;17.40;99.90;;;;;;5029037;28;20410;-72
2023/10/12 05:30:50;;;;;;;8.97;4.53;;;17.40;99.90;;;;;;5014051;28;20418;-72
2023/10/12 05:33:29;;;;;;;5.63;5.03;;;17.30;99.90;;;;;;5013940;28;20772;-72
2023/10/12 05:35:57;;;;;;;7.80;4.90;;;17.30;99.90;;;;;;5013578;28;20453;-72
2023/10/12 05:38:34;;;;;;;11.63;5.30;;;17.30;99.90;;;;;;5021313;28;21009;-72
2023/10/12 05:41:00;;;;;;;6.27;4.80;;;17.30;99.90;;;;;;5008291;28;20893;-72
2023/10/12 05:43:29;;;;;;;7.90;4.73;;;17.20;99.90;;;;;;5020501;28;20419;-72
2023/10/12 05:45:54;;;;;;;6.10;4.60;;;17.30;99.90;;;;;;5013409;28;20427;-72
2023/10/12 05:48:20;;;;;;;6.80;5.10;;;17.40;99.90;;;;;;5010709;28;20554;-72
2023/10/12 05:50:53;;;;;;;10.10;5.70;;;17.20;99.90;;;;;;5013452;28;20230;-73
2023/10/12 05:53:20;;;;;;;8.97;5.10;;;17.20;99.90;;;;;;5006541;28;20168;-72
2023/10/12 05:55:47;;;;;;;9.10;5.53;;;17.10;99.90;;;;;;5011466;28;20435;-73
2023/10/12 05:58:13;;;;;;;6.70;4.77;;;17.10;99.90;;;;;;5013055;28;20418;-72
2023/10/12 06:00:44;;;;;;;7.77;5.13;;;17.10;99.90;;;;;;5013419;28;20961;-72
2023/10/12 06:03:15;;;;;;;9.17;5.77;;;17.00;99.90;;;;;;5013338;28;20793;-72
2023/10/12 06:05:42;;;;;;;5.17;4.17;;;17.00;99.90;;;;;;5013089;28;20430;-72
2023/10/12 06:08:10;;;;;;;6.90;4.40;;;17.00;99.90;;;;;;5012975;28;20442;-73
2023/10/12 06:10:42;;;;;;;11.93;6.43;;;17.00;99.90;;;;;;5013137;28;20411;-72
2023/10/12 06:13:12;;;;;;;9.83;6.10;;;17.10;99.90;;;;;;5012957;28;20403;-72
2023/10/12 06:15:53;;;;;;;6.00;5.30;;;17.00;99.90;;;;;;5012835;28;20423;-72
2023/10/12 06:18:30;;;;;;;8.13;6.13;;;17.00;99.90;;;;;;5008545;28;20501;-72
2023/10/12 06:20:59;;;;;;;13.50;5.87;;;17.00;99.90;;;;;;5012734;28;20510;-72
2023/10/12 06:23:25;;;;;;;10.80;5.27;;;16.90;99.90;;;;;;5013091;28;20435;-72
2023/10/12 06:25:51;;;;;;;9.57;5.80;;;16.90;99.90;;;;;;5012758;28;20470;-72
2023/10/12 06:28:17;;;;;;;12.73;6.33;;;16.80;99.90;;;;;;5012744;28;20176;-72
2023/10/12 06:30:46;;;;;;;7.13;5.40;;;16.70;99.90;;;;;;5012816;28;20655;-72
2023/10/12 06:33:14;;;;;;;9.17;4.93;;;16.70;99.90;;;;;;5012795;28;20439;-72
2023/10/12 06:35:59;;;;;;;8.93;5.30;;;16.70;99.90;;;;;;5012830;28;20419;-72
2023/10/12 06:38:39;;;;;;;8.70;6.13;;;16.70;99.90;;;;;;5009231;28;20454;-72
2023/10/12 06:41:29;;;;;;;8.80;6.20;;;16.60;99.90;;;;;;5001919;28;20505;-68
2023/10/12 06:43:57;;;;;;;5.60;4.97;;;16.60;99.90;;;;;;5012406;28;20645;-70
2023/10/12 06:46:27;;;;;;;11.33;6.07;;;16.60;99.90;;;;;;5012190;28;20423;-70
2023/10/12 06:49:00;;;;;;;6.20;5.00;;;16.60;99.90;;;;;;5004876;28;20434;-69
2023/10/12 06:51:28;;;;;;;9.23;6.30;;;16.60;99.90;;;;;;5012656;28;20395;-68
2023/10/12 06:54:17;;;;;;;9.10;5.37;;;16.60;99.90;;;;;;5012488;28;20391;-69
2023/10/12 06:56:40;;;;;;;7.80;5.10;;;16.60;99.90;;;;;;5012273;28;20430;-69
2023/10/12 06:59:13;;;;;;;12.40;6.83;;;16.60;99.90;;;;;;5012649;28;20458;-69
2023/10/12 07:04:19;;;;;;;9.03;6.10;;;16.60;99.90;;;;;;5012532;28;20442;-69
2023/10/12 07:07:00;;;;;;;6.10;4.63;;;16.60;99.90;;;;;;5010934;28;20469;-68
2023/10/12 07:09:38;;;;;;;13.50;5.07;;;16.60;99.90;;;;;;5012245;28;20502;-68
2023/10/12 07:12:09;;;;;;;5.67;5.13;;;16.80;99.90;;;;;;5010995;28;20502;-68
2023/10/12 07:14:38;;;;;;;9.30;5.33;;;16.80;99.90;;;;;;5012026;28;20774;-68
2023/10/12 07:17:09;;;;;;;6.10;4.43;;;16.80;99.90;;;;;;5011778;28;20428;-68
2023/10/12 07:19:40;;;;;;;4.90;4.50;;;16.90;99.90;;;;;;5011840;28;20433;-70
2023/10/12 07:22:09;;;;;;;10.47;5.70;;;16.90;99.90;;;;;;5012316;28;20426;-68
2023/10/12 07:24:38;;;;;;;10.43;5.30;;;16.90;99.90;;;;;;5012301;28;20499;-68
2023/10/12 07:27:11;;;;;;;8.77;5.43;;;17.00;99.90;;;;;;5011832;28;20423;-70
2023/10/12 07:29:44;;;;;;;9.30;5.17;;;17.10;99.90;;;;;;5027125;28;20503;-68
2023/10/12 07:32:32;;;;;;;9.20;4.10;;;17.10;99.90;;;;;;5027296;28;20411;-70
2023/10/12 07:34:58;;;;;;;9.00;4.77;;;17.00;99.90;;;;;;5012042;28;20425;-71
2023/10/12 07:37:27;;;;;;;7.80;5.03;;;17.10;99.90;;;;;;5010591;28;20505;-70
2023/10/12 07:39:54;;;;;;;5.60;4.80;;;17.10;99.90;;;;;;5027010;28;20408;-68
2023/10/12 07:42:26;;;;;;;9.80;5.83;;;17.00;99.90;;;;;;5012272;28;20418;-71
2023/10/12 07:44:54;;;;;;;10.20;4.83;;;17.00;99.90;;;;;;5012069;28;20419;-69
2023/10/12 07:47:40;;;;;;;6.33;4.60;;;16.90;99.90;;;;;;5009922;28;20435;-71
2023/10/12 07:50:25;;;;;;;7.00;4.07;;;16.90;99.90;;;;;;5018243;28;20465;-68
2023/10/12 07:52:59;;;;;;;8.43;5.20;;;17.00;99.90;;;;;;5002365;28;20447;-69
2023/10/12 07:55:28;;;;;;;8.50;5.10;;;17.00;99.90;;;;;;5011859;28;20773;-69
2023/10/12 07:57:54;;;;;;;9.50;5.00;;;17.10;99.90;;;;;;5005942;28;20428;-71
2023/10/12 08:00:34;;;;;;;9.50;5.00;;;17.10;99.90;;;;;;4993858;28;20459;-69
2023/10/12 08:03:08;;;;;;;6.27;4.63;;;17.10;99.90;;;;;;5008828;28;20177;-68
2023/10/12 08:05:43;;;;;;;6.27;5.70;;;17.20;99.90;;;;;;5011673;28;20397;-69
2023/10/12 08:08:09;;;;;;;7.10;4.83;;;17.10;99.90;;;;;;5001571;28;20415;-70
2023/10/12 08:21:37;;;;;;;13.87;5.60;;;17.20;99.90;;;;;;5011570;28;20999;-67
2023/10/12 08:39:38;;;;;;;9.73;5.67;;;17.50;99.90;;;;;;5014816;28;20510;-67
2023/10/12 08:42:36;;;;;;;7.43;5.90;;;17.50;99.90;;;;;;5014812;28;20415;-69
2023/10/12 08:45:09;;;;;;;8.17;5.70;;;17.60;99.90;;;;;;5014707;28;20395;-68
2023/10/12 08:50:08;;;;;;;6.97;5.60;;;17.70;99.90;;;;;;5014573;28;20410;-68
2023/10/12 08:52:38;;;;;;;7.87;5.83;;;17.70;99.90;;;;;;5014509;28;20418;-67
2023/10/12 08:55:12;;;;;;;8.33;5.43;;;17.80;99.90;;;;;;5013328;28;20422;-67
2023/10/12 08:57:44;;;;;;;10.30;5.60;;;17.80;99.90;;;;;;5011904;28;20438;-67
2023/10/12 09:03:13;;;;;;;8.00;5.10;;;17.80;99.90;;;;;;5000282;28;20501;-68
2023/10/12 09:05:40;;;;;;;8.17;5.13;;;17.80;99.90;;;;;;5005732;28;20443;-70
2023/10/12 09:10:57;;;;;;;6.97;5.63;;;17.90;99.90;;;;;;5013891;28;20743;-67
2023/10/12 09:13:25;;;;;;;7.77;5.50;;;17.90;99.90;;;;;;5014215;28;20890;-70
2023/10/12 09:15:55;;;;;;;9.37;5.50;;;18.00;99.90;;;;;;5014152;28;20449;-70
2023/10/12 09:18:30;;;;;;;8.43;5.60;;;18.00;99.90;;;;;;5014257;28;20446;-67
2023/10/12 09:23:28;;;;;;;11.30;5.73;;;18.40;99.90;;;;;;5014209;28;20972;-67
2023/10/12 09:32:12;;;;;;;5.83;5.10;;;18.80;99.90;;;;;;5014243;28;20417;-69
2023/10/12 09:36:53;;;;;;;7.80;4.50;;;19.00;99.90;;;;;;5013240;28;20447;-68
2023/10/12 09:39:24;;;;;;;7.60;5.70;;;19.10;99.90;;;;;;5013649;28;20172;-68
2023/10/12 09:41:59;;;;;;;7.93;5.07;;;19.40;99.90;;;;;;5013663;28;21062;-69
2023/10/12 09:44:26;;;;;;;10.67;5.70;;;19.50;99.90;;;;;;5013687;28;20415;-68
2023/10/12 09:46:55;;;;;;;7.77;5.07;;;19.50;99.90;;;;;;5013500;28;20428;-70
2023/10/12 09:49:22;;;;;;;10.23;5.30;;;19.70;99.90;;;;;;5012041;28;20416;-68
2023/10/12 09:51:59;;;;;;;7.57;5.00;;;19.90;99.90;;;;;;5013410;28;20497;-68
2023/10/12 09:54:33;;;;;;;6.17;5.23;;;20.30;99.90;;;;;;5013452;28;20411;-68
2023/10/12 09:57:03;;;;;;;5.73;4.80;;;20.80;99.90;;;;;;5013360;28;20522;-69
2023/10/12 09:59:31;;;;;;;5.00;4.10;;;21.10;99.90;;;;;;5013767;28;20414;-68
2023/10/12 10:02:05;;;;;;;4.97;4.20;;;21.50;99.90;;;;;;5013379;28;20459;-68
2023/10/12 10:04:34;;;;;;;5.63;4.67;;;22.00;99.90;;;;;;5028700;28;20977;-68
2023/10/12 10:07:15;;;;;;;5.47;4.57;;;22.30;99.90;;;;;;5013511;28;20434;-68
2023/10/12 10:09:49;;;;;;;9.20;5.57;;;22.40;99.90;;;;;;5013399;28;20403;-69
2023/10/12 10:12:16;;;;;;;8.43;5.40;;;22.60;99.90;;;;;;5013341;28;20422;-68
2023/10/12 10:14:46;;;;;;;6.90;4.13;;;22.70;99.90;;;;;;5012222;28;20502;-68
2023/10/12 10:17:14;;;;;;;8.03;4.87;;;23.00;99.90;;;;;;5013005;28;20562;-68
2023/10/12 10:19:43;;;;;;;7.23;4.73;;;23.60;99.90;;;;;;5013011;28;20591;-68
2023/10/12 10:22:14;;;;;;;6.87;5.00;;;23.70;99.90;;;;;;5013195;28;20774;-69
2023/10/12 10:24:58;;;;;;;9.90;5.00;;;23.60;99.90;;;;;;5013880;28;20870;-68
2023/10/12 10:27:34;;;;;;;13.93;6.00;;;23.40;99.90;;;;;;5028070;28;20423;-68
2023/10/12 10:30:27;;;;;;;5.30;4.80;;;23.30;99.90;;;;;;4993397;28;20899;-68
2023/10/12 10:33:12;;;;;;;9.60;4.80;;;23.20;99.90;;;;;;4992174;28;20919;-69
2023/10/12 10:35:58;;;;;;;5.73;5.13;;;23.30;99.90;;;;;;5001987;28;20430;-68
2023/10/12 10:38:32;;;;;;;7.50;6.70;;;23.90;99.90;;;;;;5005864;28;20419;-68
2023/10/12 10:41:18;;;;;;;6.67;5.70;;;24.10;99.90;;;;;;5011116;28;20450;-69
2023/10/12 10:43:44;;;;;;;5.47;4.50;;;24.10;99.90;;;;;;5012875;28;20423;-68
2023/10/12 10:46:10;;;;;;;5.30;4.80;;;24.10;99.90;;;;;;5012704;28;20423;-69
2023/10/12 10:48:38;;;;;;;5.53;4.43;;;23.60;99.90;;;;;;5017641;28;20774;-68
2023/10/12 10:51:19;;;;;;;5.63;5.03;;;23.30;99.90;;;;;;5012638;28;20651;-68
2023/10/12 10:53:53;;;;;;;8.53;4.73;;;23.00;99.90;;;;;;5012458;28;20514;-68
2023/10/12 10:56:34;;;;;;;5.80;5.20;;;22.70;99.90;;;;;;5013987;28;20518;-67
2023/10/12 10:59:00;;;;;;;6.67;4.43;;;22.60;99.90;;;;;;5012448;28;20768;-68
2023/10/12 11:01:26;;;;;;;7.93;4.47;;;22.50;99.90;;;;;;5012528;28;20484;-67
2023/10/12 11:03:58;;;;;;;6.00;4.37;;;22.50;99.90;;;;;;5012422;28;20415;-67
2023/10/12 11:06:27;;;;;;;6.70;4.50;;;22.60;99.90;;;;;;5008444;28;20215;-68
2023/10/12 11:09:14;;;;;;;6.03;5.13;;;22.70;99.90;;;;;;5007712;28;20423;-68
2023/10/12 11:11:48;;;;;;;5.47;4.60;;;22.70;99.90;;;;;;5010064;28;20419;-71
2023/10/12 11:14:17;;;;;;;7.03;4.20;;;23.10;99.90;;;;;;5006219;28;20422;-69
2023/10/12 11:16:46;;;;;;;10.90;4.63;;;23.00;99.90;;;;;;5009193;28;20501;-68
2023/10/12 11:19:12;;;;;;;8.97;4.23;;;23.00;99.90;;;;;;4993336;28;20858;-68
2023/10/12 11:21:51;;;;;;;4.80;4.30;;;23.20;99.90;;;;;;5011850;28;20469;-68
2023/10/12 11:24:17;;;;;;;5.90;5.03;;;23.50;99.90;;;;;;5000525;28;20807;-69
2023/10/12 11:26:54;;;;;;;8.70;4.93;;;23.50;99.90;;;;;;4998184;28;20439;-69
2023/10/12 11:29:22;;;;;;;12.60;4.10;;;23.40;99.90;;;;;;5006444;28;20411;-69
2023/10/12 11:32:08;;;;;;;5.70;5.10;;;23.40;99.90;;;;;;5011723;28;20784;-69
2023/10/12 11:34:44;;;;;;;6.80;3.97;;;23.20;99.90;;;;;;5011787;28;20446;-69
2023/10/12 11:37:14;;;;;;;5.83;4.20;;;23.30;99.90;;;;;;5011644;28;20451;-69
2023/10/12 11:39:44;;;;;;;5.83;4.27;;;23.30;99.90;;;;;;5011740;28;20469;-69
2023/10/12 11:42:12;;;;;;;5.13;4.60;;;23.30;99.90;;;;;;5011950;28;20407;-68
2023/10/12 11:44:45;;;;;;;6.83;4.63;;;23.40;99.90;;;;;;5011762;28;20415;-68
2023/10/12 11:47:40;;;;;;;10.20;4.70;;;23.20;99.90;;;;;;5026967;28;20427;-68
2023/10/12 11:50:35;;;;;;;11.37;4.47;;;23.10;99.90;;;;;;5020538;28;20451;-70
2023/10/12 11:53:02;;;;;;;4.03;3.63;;;23.10;99.90;;;;;;5034879;28;20402;-68
2023/10/12 11:55:55;;;;;;;7.70;4.73;;;23.40;99.90;;;;;;5030516;28;20427;-69
2023/10/12 12:12:21;;;;;;;7.90;3.73;;;28.10;94.10;;;;;;4923566;29;20443;-67
2023/10/12 12:15:08;;;;;;;8.73;5.13;;;27.60;92.90;;;;;;4905692;29;20436;-67
2023/10/12 12:17:57;;;;;;;9.80;4.70;;;26.70;93.60;;;;;;4922188;29;20475;-68
2023/10/12 12:20:44;;;;;;;5.97;4.07;;;25.90;95.90;;;;;;4874995;29;20489;-68
2023/10/12 12:23:34;;;;;;;5.60;3.90;;;25.30;99.90;;;;;;4948780;29;20438;-69
2023/10/12 12:26:13;;;;;;;5.87;3.60;;;24.80;99.90;;;;;;5000605;28;20444;-68
2023/10/12 12:28:45;;;;;;;12.73;4.23;;;24.30;99.90;;;;;;5000790;28;20434;-67
2023/10/12 12:31:14;;;;;;;7.87;3.87;;;23.70;99.90;;;;;;5035751;28;20477;-68
2023/10/12 12:33:43;;;;;;;7.57;4.20;;;23.30;99.90;;;;;;5014610;28;20411;-68
2023/10/12 12:36:13;;;;;;;4.00;3.40;;;23.10;99.90;;;;;;5014563;28;20930;-69
2023/10/12 12:41:23;;;;;;;5.70;3.80;;;22.60;99.90;;;;;;5014964;28;20455;-68
2023/10/12 12:43:50;;;;;;;6.77;3.60;;;22.30;99.90;;;;;;5014790;28;21022;-69
2023/10/12 12:46:19;;;;;;;7.13;4.10;;;22.00;99.90;;;;;;5014545;28;20427;-68
2023/10/12 12:48:48;;;;;;;6.17;4.20;;;21.70;99.90;;;;;;5005968;28;20490;-68
2023/10/12 12:51:15;;;;;;;8.03;3.67;;;21.50;99.90;;;;;;5007031;28;20542;-68
2023/10/12 12:53:44;;;;;;;5.33;4.10;;;21.20;99.90;;;;;;5007776;28;20407;-68
2023/10/12 12:56:10;;;;;;;6.37;3.83;;;21.00;99.90;;;;;;5007851;28;20961;-69
2023/10/12 12:58:37;;;;;;;6.70;3.97;;;20.80;99.90;;;;;;5014121;28;20415;-69
2023/10/12 13:01:03;;;;;;;5.37;3.57;;;20.60;99.90;;;;;;4997821;28;20509;-70
2023/10/12 13:03:29;;;;;;;6.77;4.20;;;20.70;99.90;;;;;;5027553;28;20795;-71
2023/10/12 13:05:55;;;;;;;6.03;4.10;;;20.70;99.90;;;;;;5021883;28;20687;-71
2023/10/12 13:08:22;;;;;;;5.47;4.07;;;20.70;99.90;;;;;;5029322;28;20407;-70
2023/10/12 13:10:48;;;;;;;4.60;3.70;;;20.70;99.90;;;;;;5028492;28;20191;-69
2023/10/12 13:13:14;;;;;;;4.47;3.63;;;20.70;99.90;;;;;;5031054;28;20438;-70
2023/10/12 13:15:47;;;;;;;5.33;3.00;;;20.80;99.90;;;;;;5024670;28;20949;-71
2023/10/12 13:18:15;;;;;;;5.60;3.40;;;20.90;99.90;;;;;;5014540;28;20176;-69
2023/10/12 13:20:48;;;;;;;6.00;3.20;;;20.90;99.90;;;;;;5013953;28;20530;-68
2023/10/12 13:23:17;;;;;;;8.33;3.70;;;20.90;99.90;;;;;;5014108;28;21004;-68
2023/10/12 13:25:43;;;;;;;3.83;3.10;;;20.90;99.90;;;;;;5029116;28;21010;-68
2023/10/12 13:28:10;;;;;;;11.30;4.53;;;20.80;99.90;;;;;;5014116;28;20502;-68
2023/10/12 13:30:42;;;;;;;5.07;3.60;;;20.70;99.90;;;;;;5012700;28;20415;-68
2023/10/12 13:33:11;;;;;;;5.60;3.30;;;20.60;99.90;;;;;;5014032;28;20407;-68
2023/10/12 13:35:41;;;;;;;8.93;4.13;;;20.50;99.90;;;;;;5013622;28;20465;-68
2023/10/12 13:38:11;;;;;;;5.33;3.50;;;20.40;99.90;;;;;;5013553;28;20461;-68
2023/10/12 13:40:37;;;;;;;5.30;3.60;;;20.40;99.90;;;;;;5013755;28;20501;-67
2023/10/12 13:43:07;;;;;;;6.30;3.70;;;20.40;99.90;;;;;;5013723;28;20435;-68
2023/10/12 13:45:33;;;;;;;6.00;3.53;;;20.30;99.90;;;;;;5013579;28;20442;-69
2023/10/12 13:47:59;;;;;;;5.70;3.67;;;20.10;99.90;;;;;;5013105;28;20403;-69
2023/10/12 13:50:24;;;;;;;3.83;3.30;;;20.00;99.90;;;;;;5009185;28;20411;-70
2023/10/12 13:52:50;;;;;;;4.60;3.03;;;19.90;99.90;;;;;;5013352;28;20570;-67
2023/10/12 13:55:15;;;;;;;3.53;2.70;;;19.90;99.90;;;;;;5002718;28;20252;-69
2023/10/12 13:57:51;;;;;;;5.47;3.80;;;19.90;99.90;;;;;;5004006;28;20671;-68
2023/10/12 14:00:22;;;;;;;4.07;2.97;;;19.90;99.90;;;;;;5013195;28;20223;-71
2023/10/12 14:02:49;;;;;;;4.10;3.47;;;20.10;99.90;;;;;;5013425;28;20399;-68
2023/10/12 14:05:24;;;;;;;5.33;3.20;;;20.20;99.90;;;;;;5013201;28;20415;-69
2023/10/12 14:07:54;;;;;;;3.87;3.23;;;20.30;99.90;;;;;;5018755;28;20425;-67
2023/10/12 14:10:23;;;;;;;4.80;4.03;;;20.20;99.90;;;;;;5012866;28;20403;-68
2023/10/12 14:12:53;;;;;;;5.57;4.70;;;20.10;99.90;;;;;;5013195;28;20399;-68
2023/10/12 14:15:20;;;;;;;4.60;3.50;;;20.00;99.90;;;;;;5013228;28;20411;-67
2023/10/12 14:17:45;;;;;;;4.17;3.30;;;20.00;99.90;;;;;;5012967;28;20410;-68
2023/10/12 14:20:13;;;;;;;5.00;3.00;;;20.10;99.90;;;;;;5012024;28;20455;-69
2023/10/12 14:22:42;;;;;;;5.83;3.93;;;20.10;99.90;;;;;;5013010;28;20160;-69
2023/10/12 14:25:08;;;;;;;4.47;3.80;;;20.10;99.90;;;;;;5012164;28;20442;-68
2023/10/12 14:27:33;;;;;;;6.30;3.87;;;20.20;99.90;;;;;;5012972;28;20451;-68
2023/10/12 14:30:13;;;;;;;9.57;4.00;;;20.30;99.90;;;;;;5012795;28;20238;-69
2023/10/12 14:32:40;;;;;;;7.43;3.90;;;20.20;99.90;;;;;;5006569;28;20148;-68
2023/10/12 14:35:06;;;;;;;10.10;3.80;;;20.10;99.90;;;;;;5012774;28;20442;-68
2023/10/12 14:37:36;;;;;;;4.73;3.40;;;20.10;99.90;;;;;;5012595;28;20838;-68
2023/10/12 14:40:04;;;;;;;6.80;4.27;;;20.20;99.90;;;;;;5012467;28;20404;-68
2023/10/12 14:42:30;;;;;;;6.20;5.03;;;20.20;99.90;;;;;;5012747;28;20772;-68
2023/10/12 14:44:56;;;;;;;5.47;3.90;;;20.10;99.90;;;;;;5011399;28;20938;-68
2023/10/12 14:47:22;;;;;;;4.67;3.10;;;20.30;99.90;;;;;;5012779;28;20445;-68
2023/10/12 14:49:48;;;;;;;8.00;3.50;;;20.40;99.90;;;;;;5004858;28;20200;-70
2023/10/12 14:52:17;;;;;;;7.70;3.30;;;20.40;99.90;;;;;;4994766;28;20173;-68
2023/10/12 14:54:42;;;;;;;6.73;3.20;;;20.50;99.90;;;;;;5012486;28;20419;-68
2023/10/12 14:57:10;;;;;;;4.67;4.03;;;20.40;99.90;;;;;;5012190;28;20450;-69
2023/10/12 14:59:35;;;;;;;7.50;4.20;;;20.50;99.90;;;;;;5002591;28;20184;-70
2023/10/12 15:02:09;;;;;;;6.67;3.53;;;20.40;99.90;;;;;;5012201;28;20463;-68
2023/10/12 15:04:41;;;;;;;8.90;4.30;;;20.40;99.90;;;;;;5012221;28;20179;-70
2023/10/12 15:07:09;;;;;;;5.83;4.47;;;20.30;99.90;;;;;;5007114;28;21085;-69
2023/10/12 15:09:35;;;;;;;5.40;3.73;;;20.30;99.90;;;;;;5011882;28;20482;-69
2023/10/12 15:12:05;;;;;;;5.30;3.30;;;20.40;99.90;;;;;;4998566;28;20420;-69